sensor_id;sensor_type;location;lat;lon;timestamp;P1;durP1;ratioP1;P2;durP2;ratioP2
75718;SDS011;64340;48.534;-3.036;2023-05-10T00:00:14;7.75;;;1.45;;
75718;SDS011;64340;48.534;-3.036;2023-05-10T00:02:41;7.22;;;1.45;;
75718;SDS011;64340;48.534;-3.036;2023-05-10T00:05:07;8.25;;;2.00;;
75718;SDS011;64340;48.534;-3.036;2023-05-10T00:07:33;8.45;;;1.88;;
75718;SDS011;64340;48.534;-3.036;2023-05-10T00:09:59;6.43;;;1.65;;
75718;SDS011;64340;48.534;-3.036;2023-05-10T00:12:25;8.95;;;2.13;;
75718;SDS011;64340;48.534;-3.036;2023-05-10T00:14:50;6.38;;;1.30;;
75718;SDS011;64340;48.534;-3.036;2023-05-10T00:17:16;7.10;;;1.40;;
75718;SDS011;64340;48.534;-3.036;2023-05-10T00:19:42;6.93;;;1.75;;
75718;SDS011;64340;48.534;-3.036;2023-05-10T00:22:08;6.03;;;2.15;;
75718;SDS011;64340;48.534;-3.036;2023-05-10T00:24:33;6.78;;;1.48;;
75718;SDS011;64340;48.534;-3.036;2023-05-10T00:26:59;6.63;;;1.88;;
75718;SDS011;64340;48.534;-3.036;2023-05-10T00:29:25;7.15;;;1.50;;
75718;SDS011;64340;48.534;-3.036;2023-05-10T00:31:53;10.93;;;2.17;;
75718;SDS011;64340;48.534;-3.036;2023-05-10T00:34:18;8.90;;;1.40;;
75718;SDS011;64340;48.534;-3.036;2023-05-10T00:36:44;7.95;;;1.85;;
75718;SDS011;64340;48.534;-3.036;2023-05-10T00:39:10;6.60;;;1.80;;
75718;SDS011;64340;48.534;-3.036;2023-05-10T00:41:36;5.90;;;1.60;;
75718;SDS011;64340;48.534;-3.036;2023-05-10T00:44:02;7.70;;;1.95;;
75718;SDS011;64340;48.534;-3.036;2023-05-10T00:46:27;6.05;;;1.70;;
75718;SDS011;64340;48.534;-3.036;2023-05-10T00:48:54;9.05;;;2.03;;
75718;SDS011;64340;48.534;-3.036;2023-05-10T00:51:19;5.82;;;1.67;;
75718;SDS011;64340;48.534;-3.036;2023-05-10T00:53:46;7.32;;;1.70;;
75718;SDS011;64340;48.534;-3.036;2023-05-10T00:56:12;6.68;;;1.52;;
75718;SDS011;64340;48.534;-3.036;2023-05-10T00:58:38;6.72;;;1.60;;
75718;SDS011;64340;48.534;-3.036;2023-05-10T01:01:07;7.68;;;1.73;;
75718;SDS011;64340;48.534;-3.036;2023-05-10T01:03:34;5.45;;;1.48;;
75718;SDS011;64340;48.534;-3.036;2023-05-10T01:06:01;6.40;;;1.65;;
75718;SDS011;64340;48.534;-3.036;2023-05-10T01:08:27;7.32;;;1.58;;
75718;SDS011;64340;48.534;-3.036;2023-05-10T01:10:53;8.88;;;1.95;;
75718;SDS011;64340;48.534;-3.036;2023-05-10T01:13:30;6.57;;;1.67;;
75718;SDS011;64340;48.534;-3.036;2023-05-10T01:16:04;5.30;;;1.35;;
75718;SDS011;64340;48.534;-3.036;2023-05-10T01:18:35;7.60;;;1.17;;
75718;SDS011;64340;48.534;-3.036;2023-05-10T01:26:44;4.68;;;1.42;;
75718;SDS011;64340;48.534;-3.036;2023-05-10T01:29:24;8.07;;;1.83;;
75718;SDS011;64340;48.534;-3.036;2023-05-10T01:37:29;7.07;;;1.25;;
75718;SDS011;64340;48.534;-3.036;2023-05-10T01:45:41;8.10;;;1.60;;
75718;SDS011;64340;48.534;-3.036;2023-05-10T01:48:24;7.45;;;1.98;;
75718;SDS011;64340;48.534;-3.036;2023-05-10T01:50:53;7.28;;;1.70;;
75718;SDS011;64340;48.534;-3.036;2023-05-10T01:53:19;8.65;;;1.73;;
75718;SDS011;64340;48.534;-3.036;2023-05-10T01:55:48;7.75;;;1.40;;
75718;SDS011;64340;48.534;-3.036;2023-05-10T01:58:20;7.78;;;1.70;;
75718;SDS011;64340;48.534;-3.036;2023-05-10T02:00:55;9.00;;;1.90;;
75718;SDS011;64340;48.534;-3.036;2023-05-10T02:03:23;6.22;;;1.65;;
75718;SDS011;64340;48.534;-3.036;2023-05-10T02:05:51;8.15;;;1.85;;
75718;SDS011;64340;48.534;-3.036;2023-05-10T02:08:18;6.53;;;1.60;;
75718;SDS011;64340;48.534;-3.036;2023-05-10T02:10:46;7.05;;;1.85;;
75718;SDS011;64340;48.534;-3.036;2023-05-10T02:13:15;8.20;;;1.65;;
75718;SDS011;64340;48.534;-3.036;2023-05-10T02:15:42;8.15;;;1.70;;
75718;SDS011;64340;48.534;-3.036;2023-05-10T02:18:12;6.78;;;1.42;;
75718;SDS011;64340;48.534;-3.036;2023-05-10T02:20:40;7.15;;;1.63;;
75718;SDS011;64340;48.534;-3.036;2023-05-10T02:23:09;7.18;;;1.83;;
75718;SDS011;64340;48.534;-3.036;2023-05-10T02:25:36;5.10;;;1.25;;
75718;SDS011;64340;48.534;-3.036;2023-05-10T02:28:04;4.93;;;1.30;;
75718;SDS011;64340;48.534;-3.036;2023-05-10T02:30:31;7.50;;;1.63;;
75718;SDS011;64340;48.534;-3.036;2023-05-10T02:32:58;8.00;;;1.30;;
75718;SDS011;64340;48.534;-3.036;2023-05-10T02:35:25;8.85;;;2.00;;
75718;SDS011;64340;48.534;-3.036;2023-05-10T02:37:52;6.85;;;1.65;;
75718;SDS011;64340;48.534;-3.036;2023-05-10T02:40:19;6.57;;;1.90;;
75718;SDS011;64340;48.534;-3.036;2023-05-10T02:42:48;6.22;;;1.70;;
75718;SDS011;64340;48.534;-3.036;2023-05-10T02:45:18;6.63;;;1.35;;
75718;SDS011;64340;48.534;-3.036;2023-05-10T02:47:47;5.68;;;1.30;;
75718;SDS011;64340;48.534;-3.036;2023-05-10T02:50:13;7.65;;;1.60;;
75718;SDS011;64340;48.534;-3.036;2023-05-10T02:52:41;6.65;;;1.50;;
75718;SDS011;64340;48.534;-3.036;2023-05-10T02:55:12;6.60;;;1.50;;
75718;SDS011;64340;48.534;-3.036;2023-05-10T02:57:43;5.90;;;1.25;;
75718;SDS011;64340;48.534;-3.036;2023-05-10T03:00:15;7.20;;;1.48;;
75718;SDS011;64340;48.534;-3.036;2023-05-10T03:02:41;12.43;;;2.22;;
75718;SDS011;64340;48.534;-3.036;2023-05-10T03:05:07;5.38;;;1.25;;
75718;SDS011;64340;48.534;-3.036;2023-05-10T03:07:33;5.30;;;1.30;;
75718;SDS011;64340;48.534;-3.036;2023-05-10T03:09:59;6.28;;;1.40;;
75718;SDS011;64340;48.534;-3.036;2023-05-10T03:12:45;5.97;;;1.42;;
75718;SDS011;64340;48.534;-3.036;2023-05-10T03:15:22;4.95;;;1.30;;
75718;SDS011;64340;48.534;-3.036;2023-05-10T03:18:12;8.90;;;1.73;;
75718;SDS011;64340;48.534;-3.036;2023-05-10T03:20:48;4.80;;;1.45;;
75718;SDS011;64340;48.534;-3.036;2023-05-10T03:26:04;5.80;;;1.45;;
75718;SDS011;64340;48.534;-3.036;2023-05-10T03:28:30;7.03;;;1.48;;
75718;SDS011;64340;48.534;-3.036;2023-05-10T03:30:58;8.32;;;1.33;;
75718;SDS011;64340;48.534;-3.036;2023-05-10T03:33:25;3.03;;;1.17;;
75718;SDS011;64340;48.534;-3.036;2023-05-10T03:35:51;7.15;;;2.10;;
75718;SDS011;64340;48.534;-3.036;2023-05-10T03:38:16;7.68;;;1.77;;
75718;SDS011;64340;48.534;-3.036;2023-05-10T03:40:42;4.80;;;1.25;;
75718;SDS011;64340;48.534;-3.036;2023-05-10T03:43:08;5.38;;;1.20;;
75718;SDS011;64340;48.534;-3.036;2023-05-10T03:45:33;9.20;;;1.75;;
75718;SDS011;64340;48.534;-3.036;2023-05-10T03:47:59;4.90;;;1.15;;
75718;SDS011;64340;48.534;-3.036;2023-05-10T03:50:25;6.78;;;1.70;;
75718;SDS011;64340;48.534;-3.036;2023-05-10T03:52:51;8.48;;;1.23;;
75718;SDS011;64340;48.534;-3.036;2023-05-10T03:55:17;6.70;;;1.42;;
75718;SDS011;64340;48.534;-3.036;2023-05-10T03:57:43;5.35;;;1.23;;
75718;SDS011;64340;48.534;-3.036;2023-05-10T04:00:09;6.65;;;1.25;;
75718;SDS011;64340;48.534;-3.036;2023-05-10T04:02:35;7.20;;;1.85;;
75718;SDS011;64340;48.534;-3.036;2023-05-10T04:05:01;4.55;;;1.02;;
75718;SDS011;64340;48.534;-3.036;2023-05-10T04:07:27;5.28;;;1.33;;
75718;SDS011;64340;48.534;-3.036;2023-05-10T04:09:53;6.22;;;1.65;;
75718;SDS011;64340;48.534;-3.036;2023-05-10T04:12:19;5.28;;;0.93;;
75718;SDS011;64340;48.534;-3.036;2023-05-10T04:14:45;6.43;;;1.50;;
75718;SDS011;64340;48.534;-3.036;2023-05-10T04:17:10;5.10;;;1.30;;
75718;SDS011;64340;48.534;-3.036;2023-05-10T04:19:36;7.45;;;1.83;;
75718;SDS011;64340;48.534;-3.036;2023-05-10T04:22:02;6.38;;;1.35;;
75718;SDS011;64340;48.534;-3.036;2023-05-10T04:24:28;4.88;;;1.02;;
75718;SDS011;64340;48.534;-3.036;2023-05-10T04:26:54;4.30;;;1.13;;
75718;SDS011;64340;48.534;-3.036;2023-05-10T04:29:20;5.95;;;1.67;;
75718;SDS011;64340;48.534;-3.036;2023-05-10T04:31:46;5.35;;;1.05;;
75718;SDS011;64340;48.534;-3.036;2023-05-10T04:34:11;5.43;;;1.45;;
75718;SDS011;64340;48.534;-3.036;2023-05-10T04:36:37;5.93;;;1.50;;
75718;SDS011;64340;48.534;-3.036;2023-05-10T04:39:03;4.25;;;1.30;;
75718;SDS011;64340;48.534;-3.036;2023-05-10T04:41:29;6.18;;;1.30;;
75718;SDS011;64340;48.534;-3.036;2023-05-10T04:43:55;6.07;;;1.20;;
75718;SDS011;64340;48.534;-3.036;2023-05-10T04:46:21;7.53;;;1.60;;
75718;SDS011;64340;48.534;-3.036;2023-05-10T04:48:46;7.93;;;1.60;;
75718;SDS011;64340;48.534;-3.036;2023-05-10T04:51:12;6.05;;;1.80;;
75718;SDS011;64340;48.534;-3.036;2023-05-10T04:53:38;6.05;;;1.67;;
75718;SDS011;64340;48.534;-3.036;2023-05-10T04:56:04;6.50;;;1.65;;
75718;SDS011;64340;48.534;-3.036;2023-05-10T04:58:30;6.22;;;1.65;;
75718;SDS011;64340;48.534;-3.036;2023-05-10T05:00:56;7.40;;;1.80;;
75718;SDS011;64340;48.534;-3.036;2023-05-10T05:03:22;5.03;;;1.38;;
75718;SDS011;64340;48.534;-3.036;2023-05-10T05:05:47;7.18;;;1.83;;
75718;SDS011;64340;48.534;-3.036;2023-05-10T05:08:13;7.97;;;1.90;;
75718;SDS011;64340;48.534;-3.036;2023-05-10T05:10:39;7.45;;;1.83;;
75718;SDS011;64340;48.534;-3.036;2023-05-10T05:13:05;6.13;;;1.55;;
75718;SDS011;64340;48.534;-3.036;2023-05-10T05:15:31;6.15;;;1.40;;
75718;SDS011;64340;48.534;-3.036;2023-05-10T05:17:56;6.28;;;1.52;;
75718;SDS011;64340;48.534;-3.036;2023-05-10T05:20:23;5.63;;;1.40;;
75718;SDS011;64340;48.534;-3.036;2023-05-10T05:22:51;4.75;;;1.40;;
75718;SDS011;64340;48.534;-3.036;2023-05-10T05:25:17;5.75;;;1.60;;
75718;SDS011;64340;48.534;-3.036;2023-05-10T05:27:43;6.95;;;1.60;;
75718;SDS011;64340;48.534;-3.036;2023-05-10T05:30:09;7.70;;;1.70;;
75718;SDS011;64340;48.534;-3.036;2023-05-10T05:32:35;8.32;;;2.15;;
75718;SDS011;64340;48.534;-3.036;2023-05-10T05:35:00;8.93;;;1.58;;
75718;SDS011;64340;48.534;-3.036;2023-05-10T05:37:26;8.90;;;1.85;;
75718;SDS011;64340;48.534;-3.036;2023-05-10T05:39:52;5.65;;;1.50;;
75718;SDS011;64340;48.534;-3.036;2023-05-10T05:42:19;8.25;;;1.92;;
75718;SDS011;64340;48.534;-3.036;2023-05-10T05:44:45;6.93;;;2.25;;
75718;SDS011;64340;48.534;-3.036;2023-05-10T05:47:10;7.55;;;1.80;;
75718;SDS011;64340;48.534;-3.036;2023-05-10T05:49:36;7.20;;;1.88;;
75718;SDS011;64340;48.534;-3.036;2023-05-10T05:52:02;7.03;;;1.95;;
75718;SDS011;64340;48.534;-3.036;2023-05-10T05:54:29;6.88;;;1.70;;
75718;SDS011;64340;48.534;-3.036;2023-05-10T05:56:59;10.60;;;2.13;;
75718;SDS011;64340;48.534;-3.036;2023-05-10T05:59:25;7.88;;;1.60;;
75718;SDS011;64340;48.534;-3.036;2023-05-10T06:01:52;8.95;;;1.88;;
75718;SDS011;64340;48.534;-3.036;2023-05-10T06:04:18;8.25;;;1.85;;
75718;SDS011;64340;48.534;-3.036;2023-05-10T06:06:44;12.07;;;1.77;;
75718;SDS011;64340;48.534;-3.036;2023-05-10T06:09:10;8.07;;;1.73;;
75718;SDS011;64340;48.534;-3.036;2023-05-10T06:11:36;12.55;;;2.28;;
75718;SDS011;64340;48.534;-3.036;2023-05-10T06:14:03;9.15;;;2.03;;
75718;SDS011;64340;48.534;-3.036;2023-05-10T06:16:30;6.40;;;1.80;;
75718;SDS011;64340;48.534;-3.036;2023-05-10T06:18:56;9.35;;;2.13;;
75718;SDS011;64340;48.534;-3.036;2023-05-10T06:21:22;10.05;;;2.10;;
75718;SDS011;64340;48.534;-3.036;2023-05-10T06:23:47;6.93;;;2.13;;
75718;SDS011;64340;48.534;-3.036;2023-05-10T06:26:13;9.88;;;2.22;;
75718;SDS011;64340;48.534;-3.036;2023-05-10T06:28:39;9.60;;;2.30;;
75718;SDS011;64340;48.534;-3.036;2023-05-10T06:31:06;7.03;;;2.15;;
75718;SDS011;64340;48.534;-3.036;2023-05-10T06:33:32;9.38;;;1.70;;
75718;SDS011;64340;48.534;-3.036;2023-05-10T06:35:58;4.90;;;1.80;;
75718;SDS011;64340;48.534;-3.036;2023-05-10T06:38:24;8.75;;;1.60;;
75718;SDS011;64340;48.534;-3.036;2023-05-10T06:40:50;9.23;;;1.95;;
75718;SDS011;64340;48.534;-3.036;2023-05-10T06:43:16;8.13;;;1.83;;
75718;SDS011;64340;48.534;-3.036;2023-05-10T06:45:42;9.20;;;2.08;;
75718;SDS011;64340;48.534;-3.036;2023-05-10T06:48:08;7.57;;;1.48;;
75718;SDS011;64340;48.534;-3.036;2023-05-10T06:50:34;11.13;;;1.75;;
75718;SDS011;64340;48.534;-3.036;2023-05-10T06:53:00;10.70;;;2.25;;
75718;SDS011;64340;48.534;-3.036;2023-05-10T06:55:27;8.02;;;1.50;;
75718;SDS011;64340;48.534;-3.036;2023-05-10T06:57:53;8.90;;;1.90;;
75718;SDS011;64340;48.534;-3.036;2023-05-10T07:00:19;7.88;;;1.77;;
75718;SDS011;64340;48.534;-3.036;2023-05-10T07:02:45;10.43;;;1.98;;
75718;SDS011;64340;48.534;-3.036;2023-05-10T07:05:12;7.18;;;1.52;;
75718;SDS011;64340;48.534;-3.036;2023-05-10T07:07:38;7.10;;;2.03;;
75718;SDS011;64340;48.534;-3.036;2023-05-10T07:10:04;9.20;;;2.10;;
75718;SDS011;64340;48.534;-3.036;2023-05-10T07:12:30;5.10;;;1.65;;
75718;SDS011;64340;48.534;-3.036;2023-05-10T07:14:56;8.75;;;1.70;;
75718;SDS011;64340;48.534;-3.036;2023-05-10T07:17:22;8.80;;;1.80;;
75718;SDS011;64340;48.534;-3.036;2023-05-10T07:19:48;5.82;;;1.80;;
75718;SDS011;64340;48.534;-3.036;2023-05-10T07:22:15;7.20;;;2.13;;
75718;SDS011;64340;48.534;-3.036;2023-05-10T07:24:41;8.45;;;1.85;;
75718;SDS011;64340;48.534;-3.036;2023-05-10T07:27:07;9.45;;;1.80;;
75718;SDS011;64340;48.534;-3.036;2023-05-10T07:29:34;6.80;;;1.77;;
75718;SDS011;64340;48.534;-3.036;2023-05-10T07:32:00;9.32;;;1.40;;
75718;SDS011;64340;48.534;-3.036;2023-05-10T07:34:26;8.13;;;2.03;;
75718;SDS011;64340;48.534;-3.036;2023-05-10T07:36:52;8.40;;;2.03;;
75718;SDS011;64340;48.534;-3.036;2023-05-10T07:39:19;8.05;;;1.60;;
75718;SDS011;64340;48.534;-3.036;2023-05-10T07:41:48;7.43;;;1.40;;
75718;SDS011;64340;48.534;-3.036;2023-05-10T07:44:13;7.10;;;1.55;;
75718;SDS011;64340;48.534;-3.036;2023-05-10T07:46:39;8.25;;;1.90;;
75718;SDS011;64340;48.534;-3.036;2023-05-10T07:49:05;4.75;;;1.70;;
75718;SDS011;64340;48.534;-3.036;2023-05-10T07:51:31;6.03;;;1.60;;
75718;SDS011;64340;48.534;-3.036;2023-05-10T07:53:57;6.07;;;1.48;;
75718;SDS011;64340;48.534;-3.036;2023-05-10T07:56:23;6.53;;;1.65;;
75718;SDS011;64340;48.534;-3.036;2023-05-10T07:58:57;6.60;;;1.50;;
75718;SDS011;64340;48.534;-3.036;2023-05-10T08:01:24;7.43;;;1.65;;
75718;SDS011;64340;48.534;-3.036;2023-05-10T08:03:50;7.22;;;1.40;;
75718;SDS011;64340;48.534;-3.036;2023-05-10T08:06:18;7.10;;;1.73;;
75718;SDS011;64340;48.534;-3.036;2023-05-10T08:08:48;7.53;;;1.60;;
75718;SDS011;64340;48.534;-3.036;2023-05-10T08:11:19;7.82;;;1.60;;
75718;SDS011;64340;48.534;-3.036;2023-05-10T08:13:45;8.00;;;1.80;;
75718;SDS011;64340;48.534;-3.036;2023-05-10T08:16:12;5.13;;;1.58;;
75718;SDS011;64340;48.534;-3.036;2023-05-10T08:18:38;5.55;;;1.30;;
75718;SDS011;64340;48.534;-3.036;2023-05-10T08:21:04;6.43;;;1.35;;
75718;SDS011;64340;48.534;-3.036;2023-05-10T08:23:31;5.63;;;2.92;;
75718;SDS011;64340;48.534;-3.036;2023-05-10T08:25:57;6.40;;;2.60;;
75718;SDS011;64340;48.534;-3.036;2023-05-10T08:28:23;7.25;;;2.80;;
75718;SDS011;64340;48.534;-3.036;2023-05-10T08:30:49;9.10;;;3.10;;
75718;SDS011;64340;48.534;-3.036;2023-05-10T08:33:17;5.90;;;2.45;;
75718;SDS011;64340;48.534;-3.036;2023-05-10T08:35:43;5.10;;;2.70;;
75718;SDS011;64340;48.534;-3.036;2023-05-10T08:38:09;9.20;;;2.70;;
75718;SDS011;64340;48.534;-3.036;2023-05-10T08:40:36;8.90;;;2.83;;
75718;SDS011;64340;48.534;-3.036;2023-05-10T08:43:06;5.95;;;2.80;;
75718;SDS011;64340;48.534;-3.036;2023-05-10T08:45:37;5.70;;;2.83;;
75718;SDS011;64340;48.534;-3.036;2023-05-10T08:48:05;7.50;;;2.55;;
75718;SDS011;64340;48.534;-3.036;2023-05-10T08:50:32;8.65;;;2.75;;
75718;SDS011;64340;48.534;-3.036;2023-05-10T08:53:04;6.50;;;2.13;;
75718;SDS011;64340;48.534;-3.036;2023-05-10T08:55:37;6.50;;;2.30;;
75718;SDS011;64340;48.534;-3.036;2023-05-10T08:58:04;5.03;;;2.55;;
75718;SDS011;64340;48.534;-3.036;2023-05-10T09:00:31;9.07;;;2.22;;
75718;SDS011;64340;48.534;-3.036;2023-05-10T09:02:58;8.68;;;2.13;;
75718;SDS011;64340;48.534;-3.036;2023-05-10T09:05:24;8.27;;;2.15;;
75718;SDS011;64340;48.534;-3.036;2023-05-10T09:07:50;6.40;;;1.98;;
75718;SDS011;64340;48.534;-3.036;2023-05-10T09:10:16;6.38;;;2.40;;
75718;SDS011;64340;48.534;-3.036;2023-05-10T09:12:43;8.88;;;2.00;;
75718;SDS011;64340;48.534;-3.036;2023-05-10T09:15:10;4.15;;;1.92;;
75718;SDS011;64340;48.534;-3.036;2023-05-10T09:17:38;7.07;;;1.88;;
75718;SDS011;64340;48.534;-3.036;2023-05-10T09:20:05;5.72;;;1.58;;
75718;SDS011;64340;48.534;-3.036;2023-05-10T09:22:34;8.02;;;1.75;;
75718;SDS011;64340;48.534;-3.036;2023-05-10T09:25:07;5.57;;;1.65;;
75718;SDS011;64340;48.534;-3.036;2023-05-10T09:27:38;8.07;;;2.00;;
75718;SDS011;64340;48.534;-3.036;2023-05-10T09:30:06;7.95;;;1.52;;
75718;SDS011;64340;48.534;-3.036;2023-05-10T09:32:42;4.47;;;1.40;;
75718;SDS011;64340;48.534;-3.036;2023-05-10T09:35:11;5.38;;;1.60;;
75718;SDS011;64340;48.534;-3.036;2023-05-10T09:37:42;4.25;;;1.27;;
75718;SDS011;64340;48.534;-3.036;2023-05-10T09:40:16;3.88;;;1.52;;
75718;SDS011;64340;48.534;-3.036;2023-05-10T09:42:42;5.80;;;1.50;;
75718;SDS011;64340;48.534;-3.036;2023-05-10T09:45:37;5.50;;;1.52;;
75718;SDS011;64340;48.534;-3.036;2023-05-10T09:48:03;6.68;;;1.60;;
75718;SDS011;64340;48.534;-3.036;2023-05-10T09:50:29;5.95;;;1.67;;
75718;SDS011;64340;48.534;-3.036;2023-05-10T09:52:59;11.52;;;1.98;;
75718;SDS011;64340;48.534;-3.036;2023-05-10T09:58:06;19.13;;;8.32;;
75718;SDS011;64340;48.534;-3.036;2023-05-10T10:00:35;26.70;;;11.10;;
75718;SDS011;64340;48.534;-3.036;2023-05-10T10:03:02;62.05;;;25.48;;
75718;SDS011;64340;48.534;-3.036;2023-05-10T10:05:32;60.72;;;24.73;;
75718;SDS011;64340;48.534;-3.036;2023-05-10T10:08:00;59.85;;;24.65;;
75718;SDS011;64340;48.534;-3.036;2023-05-10T10:10:28;56.92;;;21.27;;
75718;SDS011;64340;48.534;-3.036;2023-05-10T10:12:54;52.90;;;21.17;;
75718;SDS011;64340;48.534;-3.036;2023-05-10T10:15:20;47.05;;;19.83;;
75718;SDS011;64340;48.534;-3.036;2023-05-10T10:17:48;58.38;;;21.25;;
75718;SDS011;64340;48.534;-3.036;2023-05-10T10:20:15;46.55;;;18.88;;
75718;SDS011;64340;48.534;-3.036;2023-05-10T10:22:41;47.47;;;19.88;;
75718;SDS011;64340;48.534;-3.036;2023-05-10T10:25:12;48.80;;;17.63;;
75718;SDS011;64340;48.534;-3.036;2023-05-10T10:30:31;42.70;;;18.58;;
75718;SDS011;64340;48.534;-3.036;2023-05-10T10:36:07;39.30;;;16.67;;
75718;SDS011;64340;48.534;-3.036;2023-05-10T10:41:27;36.55;;;14.90;;
75718;SDS011;64340;48.534;-3.036;2023-05-10T10:50:22;26.08;;;11.43;;
75718;SDS011;64340;48.534;-3.036;2023-05-10T10:55:00;26.23;;;10.75;;
75718;SDS011;64340;48.534;-3.036;2023-05-10T11:00:26;26.60;;;9.90;;
75718;SDS011;64340;48.534;-3.036;2023-05-10T11:02:57;22.40;;;9.02;;
75718;SDS011;64340;48.534;-3.036;2023-05-10T11:05:45;23.20;;;8.65;;
75718;SDS011;64340;48.534;-3.036;2023-05-10T11:15:57;16.73;;;6.80;;
75718;SDS011;64340;48.534;-3.036;2023-05-10T11:18:27;19.13;;;7.03;;
75718;SDS011;64340;48.534;-3.036;2023-05-10T11:20:56;19.25;;;6.97;;
75718;SDS011;64340;48.534;-3.036;2023-05-10T11:23:29;13.93;;;6.32;;
75718;SDS011;64340;48.534;-3.036;2023-05-10T11:25:56;18.60;;;6.20;;
75718;SDS011;64340;48.534;-3.036;2023-05-10T11:28:22;17.20;;;5.18;;
75718;SDS011;64340;48.534;-3.036;2023-05-10T11:30:48;15.95;;;6.10;;
75718;SDS011;64340;48.534;-3.036;2023-05-10T11:33:15;15.35;;;5.55;;
75718;SDS011;64340;48.534;-3.036;2023-05-10T11:35:42;13.65;;;4.60;;
75718;SDS011;64340;48.534;-3.036;2023-05-10T11:38:09;13.60;;;5.25;;
75718;SDS011;64340;48.534;-3.036;2023-05-10T11:40:36;10.90;;;4.60;;
75718;SDS011;64340;48.534;-3.036;2023-05-10T11:43:03;13.10;;;5.00;;
75718;SDS011;64340;48.534;-3.036;2023-05-10T11:45:33;11.07;;;4.68;;
75718;SDS011;64340;48.534;-3.036;2023-05-10T11:48:00;12.18;;;4.50;;
75718;SDS011;64340;48.534;-3.036;2023-05-10T11:50:26;14.90;;;4.15;;
75718;SDS011;64340;48.534;-3.036;2023-05-10T11:52:53;9.90;;;3.67;;
75718;SDS011;64340;48.534;-3.036;2023-05-10T11:55:23;10.43;;;4.07;;
75718;SDS011;64340;48.534;-3.036;2023-05-10T11:57:55;10.63;;;4.00;;
75718;SDS011;64340;48.534;-3.036;2023-05-10T12:00:27;11.98;;;4.15;;
75718;SDS011;64340;48.534;-3.036;2023-05-10T12:02:53;10.15;;;3.33;;
75718;SDS011;64340;48.534;-3.036;2023-05-10T12:05:19;9.98;;;3.60;;
75718;SDS011;64340;48.534;-3.036;2023-05-10T12:07:45;11.18;;;3.30;;
75718;SDS011;64340;48.534;-3.036;2023-05-10T12:10:11;7.57;;;3.22;;
75718;SDS011;64340;48.534;-3.036;2023-05-10T12:12:45;7.70;;;3.05;;
75718;SDS011;64340;48.534;-3.036;2023-05-10T12:15:18;9.85;;;3.35;;
75718;SDS011;64340;48.534;-3.036;2023-05-10T12:17:49;10.70;;;4.07;;
75718;SDS011;64340;48.534;-3.036;2023-05-10T12:20:16;8.75;;;3.10;;
75718;SDS011;64340;48.534;-3.036;2023-05-10T12:22:49;9.18;;;2.85;;
75718;SDS011;64340;48.534;-3.036;2023-05-10T12:25:21;11.73;;;3.38;;
75718;SDS011;64340;48.534;-3.036;2023-05-10T12:27:49;7.00;;;2.55;;
75718;SDS011;64340;48.534;-3.036;2023-05-10T12:30:25;9.02;;;2.90;;
75718;SDS011;64340;48.534;-3.036;2023-05-10T12:32:53;8.05;;;2.50;;
75718;SDS011;64340;48.534;-3.036;2023-05-10T12:35:25;8.05;;;2.80;;
75718;SDS011;64340;48.534;-3.036;2023-05-10T12:37:54;7.60;;;2.58;;
75718;SDS011;64340;48.534;-3.036;2023-05-10T12:40:20;9.30;;;2.83;;
75718;SDS011;64340;48.534;-3.036;2023-05-10T12:42:46;5.68;;;2.00;;
75718;SDS011;64340;48.534;-3.036;2023-05-10T12:45:12;7.95;;;2.10;;
75718;SDS011;64340;48.534;-3.036;2023-05-10T12:47:37;6.03;;;2.45;;
75718;SDS011;64340;48.534;-3.036;2023-05-10T12:50:04;8.05;;;2.58;;
75718;SDS011;64340;48.534;-3.036;2023-05-10T12:52:30;7.53;;;2.38;;
75718;SDS011;64340;48.534;-3.036;2023-05-10T12:54:57;7.32;;;2.17;;
75718;SDS011;64340;48.534;-3.036;2023-05-10T12:57:24;5.03;;;1.85;;
75718;SDS011;64340;48.534;-3.036;2023-05-10T12:59:50;5.38;;;1.92;;
75718;SDS011;64340;48.534;-3.036;2023-05-10T13:02:15;8.00;;;2.20;;
75718;SDS011;64340;48.534;-3.036;2023-05-10T13:04:43;7.05;;;2.15;;
75718;SDS011;64340;48.534;-3.036;2023-05-10T13:07:09;7.18;;;2.05;;
75718;SDS011;64340;48.534;-3.036;2023-05-10T13:09:35;6.78;;;2.22;;
75718;SDS011;64340;48.534;-3.036;2023-05-10T13:12:09;5.68;;;1.42;;
75718;SDS011;64340;48.534;-3.036;2023-05-10T13:14:37;5.63;;;1.70;;
75718;SDS011;64340;48.534;-3.036;2023-05-10T13:17:05;5.55;;;1.55;;
75718;SDS011;64340;48.534;-3.036;2023-05-10T13:19:34;8.05;;;2.17;;
75718;SDS011;64340;48.534;-3.036;2023-05-10T13:22:00;4.05;;;1.75;;
75718;SDS011;64340;48.534;-3.036;2023-05-10T13:24:26;5.72;;;2.50;;
75718;SDS011;64340;48.534;-3.036;2023-05-10T13:26:51;7.07;;;1.73;;
75718;SDS011;64340;48.534;-3.036;2023-05-10T13:29:17;10.18;;;3.47;;
75718;SDS011;64340;48.534;-3.036;2023-05-10T13:31:44;7.20;;;2.38;;
75718;SDS011;64340;48.534;-3.036;2023-05-10T13:34:09;7.35;;;1.48;;
75718;SDS011;64340;48.534;-3.036;2023-05-10T13:36:35;6.13;;;1.52;;
75718;SDS011;64340;48.534;-3.036;2023-05-10T13:39:01;4.70;;;1.35;;
75718;SDS011;64340;48.534;-3.036;2023-05-10T13:41:28;3.78;;;1.33;;
75718;SDS011;64340;48.534;-3.036;2023-05-10T13:43:54;5.28;;;1.40;;
75718;SDS011;64340;48.534;-3.036;2023-05-10T13:46:19;3.60;;;1.45;;
75718;SDS011;64340;48.534;-3.036;2023-05-10T13:48:45;5.03;;;1.40;;
75718;SDS011;64340;48.534;-3.036;2023-05-10T13:51:11;6.43;;;1.38;;
75718;SDS011;64340;48.534;-3.036;2023-05-10T13:53:37;4.05;;;1.10;;
75718;SDS011;64340;48.534;-3.036;2023-05-10T13:56:03;3.53;;;1.30;;
75718;SDS011;64340;48.534;-3.036;2023-05-10T13:58:29;4.10;;;1.20;;
75718;SDS011;64340;48.534;-3.036;2023-05-10T14:00:55;6.82;;;1.52;;
75718;SDS011;64340;48.534;-3.036;2023-05-10T14:03:21;5.32;;;1.20;;
75718;SDS011;64340;48.534;-3.036;2023-05-10T14:05:47;5.75;;;1.40;;
75718;SDS011;64340;48.534;-3.036;2023-05-10T14:08:12;8.00;;;1.30;;
75718;SDS011;64340;48.534;-3.036;2023-05-10T14:10:38;2.35;;;1.00;;
75718;SDS011;64340;48.534;-3.036;2023-05-10T14:13:04;3.60;;;1.17;;
75718;SDS011;64340;48.534;-3.036;2023-05-10T14:15:31;2.75;;;0.80;;
75718;SDS011;64340;48.534;-3.036;2023-05-10T14:17:56;3.67;;;1.05;;
75718;SDS011;64340;48.534;-3.036;2023-05-10T14:20:22;4.35;;;1.10;;
75718;SDS011;64340;48.534;-3.036;2023-05-10T14:22:48;4.25;;;1.50;;
75718;SDS011;64340;48.534;-3.036;2023-05-10T14:25:14;2.95;;;0.88;;
75718;SDS011;64340;48.534;-3.036;2023-05-10T14:27:40;4.25;;;1.00;;
75718;SDS011;64340;48.534;-3.036;2023-05-10T14:30:06;5.88;;;1.20;;
75718;SDS011;64340;48.534;-3.036;2023-05-10T14:32:32;4.68;;;0.95;;
75718;SDS011;64340;48.534;-3.036;2023-05-10T14:34:58;3.70;;;1.05;;
75718;SDS011;64340;48.534;-3.036;2023-05-10T14:37:24;6.32;;;1.08;;
75718;SDS011;64340;48.534;-3.036;2023-05-10T14:39:51;6.03;;;1.25;;
75718;SDS011;64340;48.534;-3.036;2023-05-10T14:42:17;3.33;;;1.00;;
75718;SDS011;64340;48.534;-3.036;2023-05-10T14:44:43;3.72;;;0.82;;
75718;SDS011;64340;48.534;-3.036;2023-05-10T14:47:10;6.53;;;1.17;;
75718;SDS011;64340;48.534;-3.036;2023-05-10T14:49:36;4.20;;;0.80;;
75718;SDS011;64340;48.534;-3.036;2023-05-10T14:52:02;2.30;;;1.00;;
75718;SDS011;64340;48.534;-3.036;2023-05-10T14:54:28;3.15;;;1.00;;
75718;SDS011;64340;48.534;-3.036;2023-05-10T14:56:53;3.17;;;0.93;;
75718;SDS011;64340;48.534;-3.036;2023-05-10T14:59:20;4.63;;;1.00;;
75718;SDS011;64340;48.534;-3.036;2023-05-10T15:01:45;3.78;;;0.90;;
75718;SDS011;64340;48.534;-3.036;2023-05-10T15:04:11;4.47;;;1.00;;
75718;SDS011;64340;48.534;-3.036;2023-05-10T15:06:38;3.67;;;0.85;;
75718;SDS011;64340;48.534;-3.036;2023-05-10T15:09:04;4.47;;;0.88;;
75718;SDS011;64340;48.534;-3.036;2023-05-10T15:11:29;3.60;;;0.90;;
75718;SDS011;64340;48.534;-3.036;2023-05-10T15:13:55;3.40;;;0.70;;
75718;SDS011;64340;48.534;-3.036;2023-05-10T15:16:21;4.90;;;0.95;;
75718;SDS011;64340;48.534;-3.036;2023-05-10T15:18:47;3.83;;;0.85;;
75718;SDS011;64340;48.534;-3.036;2023-05-10T15:21:13;4.68;;;1.02;;